createdAt,value
2022-08-22T00:00:43.926Z,10.70
2022-08-22T00:01:44.171Z,10.70
2022-08-22T00:02:47.028Z,10.60
2022-08-22T00:02:55.559Z,10.90
2022-08-22T00:02:55.897Z,13.00
2022-08-22T00:02:59.340Z,11.40
2022-08-22T00:03:02.491Z,10.90
2022-08-22T00:03:12.821Z,12.60
2022-08-22T00:03:15.165Z,10.10
2022-08-22T00:03:45.687Z,11.60
2022-08-22T00:04:45.040Z,9.70
2022-08-22T00:05:45.309Z,11.80
2022-08-22T00:06:45.575Z,8.60
2022-08-22T00:07:45.875Z,10.30
2022-08-22T00:08:46.127Z,12.00
2022-08-22T00:09:46.426Z,12.40
2022-08-22T00:10:46.704Z,12.00
2022-08-22T00:11:46.991Z,9.90
2022-08-22T00:12:48.179Z,13.00
2022-08-22T00:13:47.615Z,12.50
2022-08-22T00:14:48.854Z,12.90
2022-08-22T00:15:48.112Z,10.80
2022-08-22T00:16:48.386Z,10.90
2022-08-22T00:17:48.641Z,9.20
2022-08-22T00:18:48.890Z,12.50
2022-08-22T00:19:49.204Z,11.30
2022-08-22T00:20:49.487Z,11.80
2022-08-22T00:21:49.789Z,12.60
2022-08-22T00:22:50.061Z,13.00
2022-08-22T00:23:50.254Z,12.50
2022-08-22T00:24:50.558Z,11.10
2022-08-22T00:25:50.742Z,9.90
2022-08-22T00:26:51.087Z,11.50
2022-08-22T00:27:51.299Z,10.30
2022-08-22T00:28:51.622Z,10.40
2022-08-22T00:29:51.884Z,15.30
2022-08-22T00:30:52.128Z,12.90
2022-08-22T00:31:52.400Z,11.70
2022-08-22T00:32:52.697Z,10.90
2022-08-22T00:33:52.888Z,15.80
2022-08-22T00:34:53.161Z,11.10
2022-08-22T00:35:53.598Z,9.70
2022-08-22T00:36:53.914Z,10.30
2022-08-22T00:37:54.053Z,11.40
2022-08-22T00:38:54.286Z,10.40
2022-08-22T00:39:54.615Z,12.60
2022-08-22T00:40:54.918Z,12.20
2022-08-22T00:41:55.168Z,11.70
2022-08-22T00:42:55.497Z,12.50
2022-08-22T00:43:55.698Z,12.40
2022-08-22T00:44:55.974Z,12.80
2022-08-22T00:45:56.326Z,9.40
2022-08-22T00:46:56.622Z,12.00
2022-08-22T00:47:57.009Z,11.90
2022-08-22T00:48:57.606Z,9.50
2022-08-22T00:49:57.369Z,12.70
2022-08-22T00:50:57.679Z,15.20
2022-08-22T00:51:57.990Z,12.00
2022-08-22T00:52:58.245Z,8.80
2022-08-22T00:53:58.636Z,12.70
2022-08-22T00:54:58.850Z,13.20
2022-08-22T00:55:59.090Z,11.10
2022-08-22T00:56:59.336Z,9.10
2022-08-22T00:57:59.716Z,10.80
2022-08-22T00:58:59.826Z,12.30
2022-08-22T01:00:01.116Z,9.80
2022-08-22T01:01:00.462Z,12.70
2022-08-22T01:02:00.658Z,9.30
2022-08-22T01:03:01.017Z,10.10
2022-08-22T01:04:01.340Z,8.90
2022-08-22T01:05:01.707Z,9.50
2022-08-22T01:06:01.899Z,8.20
2022-08-22T01:07:02.178Z,11.40
2022-08-22T01:08:02.482Z,10.40
2022-08-22T01:09:02.751Z,9.00
2022-08-22T01:10:03.040Z,11.70
2022-08-22T01:11:03.404Z,10.20
2022-08-22T01:12:03.682Z,10.20
2022-08-22T01:13:03.966Z,10.80
2022-08-22T01:14:04.225Z,9.40
2022-08-22T01:15:04.541Z,9.40
2022-08-22T01:16:04.783Z,8.70
2022-08-22T01:17:05.068Z,12.60
2022-08-22T01:18:05.339Z,10.40
2022-08-22T01:19:05.616Z,10.70
2022-08-22T01:20:06.004Z,11.80
2022-08-22T01:21:06.133Z,9.20
2022-08-22T01:22:06.413Z,9.30
2022-08-22T01:23:06.632Z,10.20
2022-08-22T01:24:06.857Z,9.80
2022-08-22T01:25:07.208Z,10.50
2022-08-22T01:26:07.545Z,11.20
2022-08-22T01:27:07.886Z,8.90
2022-08-22T01:28:08.206Z,9.20
2022-08-22T01:29:10.428Z,10.30
2022-08-22T01:30:08.824Z,10.10
2022-08-22T01:31:09.046Z,10.30
2022-08-22T01:32:09.426Z,8.80
2022-08-22T01:33:09.637Z,9.80
2022-08-22T01:34:13.043Z,8.90
2022-08-22T01:35:10.233Z,10.10
2022-08-22T01:36:10.459Z,11.70
2022-08-22T01:37:10.754Z,10.40
2022-08-22T01:38:11.056Z,7.70
2022-08-22T01:39:11.348Z,10.20
2022-08-22T01:40:11.597Z,8.20
2022-08-22T01:41:12.123Z,10.40
2022-08-22T01:42:12.200Z,8.60
2022-08-22T01:43:12.561Z,8.90
2022-08-22T01:44:12.756Z,8.10
2022-08-22T01:45:13.041Z,11.20
2022-08-22T01:46:13.349Z,9.40
2022-08-22T01:47:14.600Z,10.00
2022-08-22T01:48:13.882Z,13.20
2022-08-22T01:49:14.183Z,9.10
2022-08-22T01:50:14.463Z,12.00
2022-08-22T01:51:14.803Z,9.70
2022-08-22T01:52:15.090Z,9.90
2022-08-22T01:53:15.376Z,10.50
2022-08-22T01:54:15.651Z,10.80
2022-08-22T01:55:15.981Z,9.40
2022-08-22T01:56:16.314Z,10.40
2022-08-22T01:57:16.523Z,8.50
2022-08-22T01:58:16.871Z,9.50
2022-08-22T01:59:17.621Z,9.70
2022-08-22T02:00:17.445Z,9.20
2022-08-22T02:01:17.799Z,11.50
2022-08-22T02:02:17.950Z,8.30
2022-08-22T02:03:18.274Z,8.90
2022-08-22T02:04:18.469Z,11.60
2022-08-22T02:05:18.716Z,8.80
2022-08-22T02:06:19.029Z,8.10
2022-08-22T02:07:19.302Z,11.70
2022-08-22T02:08:19.615Z,9.90
2022-08-22T02:09:19.827Z,9.10
2022-08-22T02:10:20.050Z,10.20
2022-08-22T02:11:20.309Z,8.70
2022-08-22T02:12:21.768Z,11.00
2022-08-22T02:13:20.962Z,8.80
2022-08-22T02:14:21.218Z,12.40
2022-08-22T02:15:21.527Z,8.50
2022-08-22T02:16:21.776Z,9.00
2022-08-22T02:17:22.125Z,9.90
2022-08-22T02:18:22.314Z,8.60
2022-08-22T02:19:22.600Z,8.90
2022-08-22T02:20:22.867Z,9.80
2022-08-22T02:21:23.145Z,9.60
2022-08-22T02:22:23.434Z,8.10
2022-08-22T02:23:23.757Z,9.50
2022-08-22T02:24:23.980Z,8.60
2022-08-22T02:25:24.234Z,10.60
2022-08-22T02:26:24.456Z,10.40
2022-08-22T02:27:24.799Z,12.00
2022-08-22T02:28:25.065Z,9.20
2022-08-22T02:29:25.291Z,9.10
2022-08-22T02:30:25.644Z,9.70
2022-08-22T02:31:25.851Z,9.10
2022-08-22T02:32:26.171Z,10.40
2022-08-22T02:33:26.369Z,9.90
2022-08-22T02:34:26.664Z,10.10
2022-08-22T02:35:26.983Z,9.90
2022-08-22T02:36:27.287Z,9.40
2022-08-22T02:37:27.500Z,9.30
2022-08-22T02:38:27.811Z,9.90
2022-08-22T02:39:27.985Z,8.70
2022-08-22T02:40:28.247Z,11.60
2022-08-22T02:41:28.505Z,10.00
2022-08-22T02:42:28.849Z,12.10
2022-08-22T02:43:29.088Z,11.30
2022-08-22T02:44:29.379Z,10.40
2022-08-22T02:45:29.659Z,9.10
2022-08-22T02:46:30.002Z,10.20
2022-08-22T02:47:30.210Z,17.70
2022-08-22T02:48:30.525Z,12.40
2022-08-22T02:49:30.779Z,12.60
2022-08-22T02:50:31.121Z,8.50
2022-08-22T02:51:31.423Z,9.10
2022-08-22T02:52:31.678Z,10.50
2022-08-22T02:53:32.033Z,10.00
2022-08-22T02:54:32.302Z,12.40
2022-08-22T02:55:32.625Z,9.50
2022-08-22T02:56:32.839Z,9.30
2022-08-22T02:57:36.158Z,9.10
2022-08-22T02:58:34.341Z,9.70
2022-08-22T02:59:33.676Z,10.10
2022-08-22T03:00:33.971Z,9.40
2022-08-22T03:01:34.172Z,10.90
2022-08-22T03:02:34.492Z,10.20
2022-08-22T03:03:34.713Z,8.10
2022-08-22T03:04:35.049Z,10.00
2022-08-22T03:05:35.305Z,12.50
2022-08-22T03:06:35.516Z,8.90
2022-08-22T03:07:35.799Z,10.10
2022-08-22T03:08:36.073Z,9.80
2022-08-22T03:09:36.386Z,8.90
2022-08-22T03:10:36.627Z,11.20
2022-08-22T03:11:36.965Z,10.40
2022-08-22T03:12:37.180Z,11.20
2022-08-22T03:13:37.551Z,11.40
2022-08-22T03:14:37.780Z,11.30
2022-08-22T03:15:38.922Z,8.90
2022-08-22T03:16:38.404Z,10.10
2022-08-22T03:17:38.791Z,9.20
2022-08-22T03:18:39.016Z,12.50
2022-08-22T03:19:39.322Z,9.20
2022-08-22T03:20:39.590Z,10.70
2022-08-22T03:21:39.891Z,8.60
2022-08-22T03:22:40.224Z,9.80
2022-08-22T03:23:40.440Z,8.70
2022-08-22T03:24:40.734Z,10.50
2022-08-22T03:25:40.980Z,9.50
2022-08-22T03:26:41.324Z,11.00
2022-08-22T03:27:41.706Z,9.10
2022-08-22T03:28:52.627Z,9.10
2022-08-22T03:29:43.131Z,10.90
2022-08-22T03:30:42.428Z,10.30
2022-08-22T03:31:42.762Z,9.80
2022-08-22T03:32:43.014Z,14.60
2022-08-22T03:33:43.311Z,11.20
2022-08-22T03:34:43.614Z,10.30
2022-08-22T03:35:43.891Z,9.90
2022-08-22T03:36:44.168Z,9.90
2022-08-22T03:37:44.469Z,10.60
2022-08-22T03:38:44.831Z,11.40
2022-08-22T03:39:45.165Z,10.80
2022-08-22T03:40:45.416Z,8.90
2022-08-22T03:41:45.721Z,10.50
2022-08-22T03:42:46.052Z,12.20
2022-08-22T03:43:46.339Z,13.30
2022-08-22T03:44:46.665Z,12.40
2022-08-22T03:45:46.967Z,12.00
2022-08-22T03:46:47.279Z,12.90
2022-08-22T03:47:47.591Z,11.10
2022-08-22T03:48:47.906Z,10.80
2022-08-22T03:49:48.224Z,11.80
2022-08-22T03:50:48.533Z,12.90
2022-08-22T03:51:48.848Z,11.80
2022-08-22T03:52:49.176Z,12.30
2022-08-22T03:53:49.456Z,10.40
2022-08-22T03:54:49.794Z,14.30
2022-08-22T03:55:50.117Z,11.60
2022-08-22T03:56:50.320Z,11.20
2022-08-22T03:57:51.530Z,11.00
2022-08-22T03:58:50.873Z,13.30
2022-08-22T03:59:51.110Z,12.10
2022-08-22T04:00:51.377Z,9.80
2022-08-22T04:01:51.753Z,14.10
2022-08-22T04:02:52.013Z,11.90
2022-08-22T04:03:52.303Z,9.80
2022-08-22T04:04:52.669Z,9.40
2022-08-22T04:05:53.394Z,8.90
2022-08-22T04:06:53.660Z,10.80
2022-08-22T04:07:53.548Z,10.00
2022-08-22T04:08:53.778Z,10.20
2022-08-22T04:09:54.012Z,11.20
2022-08-22T04:10:54.369Z,8.70
2022-08-22T04:11:54.563Z,11.20
2022-08-22T04:12:54.989Z,12.10
2022-08-22T04:13:55.145Z,14.00
2022-08-22T04:14:55.558Z,12.60
2022-08-22T04:15:55.807Z,14.10
2022-08-22T04:16:56.060Z,12.30
2022-08-22T04:17:56.546Z,11.10
2022-08-22T04:18:56.719Z,10.20
2022-08-22T04:19:57.048Z,13.00
2022-08-22T04:20:57.738Z,15.20
2022-08-22T04:21:57.554Z,11.80
2022-08-22T04:22:57.878Z,15.80
2022-08-22T04:23:58.211Z,9.10
2022-08-22T04:24:58.550Z,12.20
2022-08-22T04:25:58.812Z,11.20
2022-08-22T04:26:59.115Z,12.60
2022-08-22T04:27:59.692Z,14.70
2022-08-22T04:28:59.599Z,10.70
2022-08-22T04:29:59.823Z,11.50
2022-08-22T04:31:00.073Z,15.40
2022-08-22T04:32:00.422Z,12.50
2022-08-22T04:33:00.630Z,11.50
2022-08-22T04:34:01.009Z,13.50
2022-08-22T04:35:01.206Z,14.80
2022-08-22T04:36:01.541Z,14.90
2022-08-22T04:37:01.912Z,13.50
2022-08-22T04:38:02.143Z,10.60
2022-08-22T04:39:02.410Z,13.80
2022-08-22T04:40:02.786Z,15.40
2022-08-22T04:41:04.726Z,13.40
2022-08-22T04:42:16.275Z,10.50
2022-08-22T04:43:04.571Z,12.20
2022-08-22T04:44:03.870Z,14.50
2022-08-22T04:45:04.076Z,11.00
2022-08-22T04:46:04.457Z,12.70
2022-08-22T04:47:04.676Z,11.50
2022-08-22T04:48:04.958Z,11.50
2022-08-22T04:49:05.208Z,12.80
2022-08-22T04:50:05.574Z,14.20
2022-08-22T04:51:05.839Z,12.90
2022-08-22T04:52:06.116Z,16.70
2022-08-22T04:53:06.365Z,17.50
2022-08-22T04:54:06.628Z,17.20
2022-08-22T04:55:06.950Z,20.20
2022-08-22T04:56:07.791Z,15.50
2022-08-22T04:57:07.417Z,14.50
2022-08-22T04:58:07.637Z,13.80
2022-08-22T04:59:08.016Z,18.90
2022-08-22T05:00:08.318Z,13.80
2022-08-22T05:01:08.626Z,17.40
2022-08-22T05:02:08.931Z,14.10
2022-08-22T05:03:09.135Z,16.60
2022-08-22T05:04:09.380Z,16.50
2022-08-22T05:05:13.222Z,14.70
2022-08-22T05:06:09.858Z,14.30
2022-08-22T05:07:10.176Z,12.70
2022-08-22T05:08:10.374Z,12.10
2022-08-22T05:09:14.203Z,11.90
2022-08-22T05:10:12.547Z,12.40
2022-08-22T05:11:12.166Z,13.50
2022-08-22T05:12:11.436Z,12.00
2022-08-22T05:13:11.653Z,19.00
2022-08-22T05:14:12.086Z,14.70
2022-08-22T05:15:12.395Z,12.20
2022-08-22T05:16:12.702Z,16.10
2022-08-22T05:17:12.920Z,13.00
2022-08-22T05:18:13.184Z,15.30
2022-08-22T05:19:16.591Z,17.90
2022-08-22T05:20:13.822Z,16.90
2022-08-22T05:21:14.143Z,15.70
2022-08-22T05:22:14.337Z,15.90
2022-08-22T05:23:17.412Z,13.80
2022-08-22T05:24:14.940Z,14.50
2022-08-22T05:25:15.189Z,14.50
2022-08-22T05:26:15.519Z,16.60
2022-08-22T05:27:15.777Z,16.40
2022-08-22T05:28:16.062Z,15.60
2022-08-22T05:29:16.360Z,15.30
2022-08-22T05:30:16.649Z,18.40
2022-08-22T05:31:17.023Z,17.40
2022-08-22T05:32:17.851Z,14.70
2022-08-22T05:33:17.365Z,14.50
2022-08-22T05:34:18.027Z,16.40
2022-08-22T05:35:17.938Z,15.60
2022-08-22T05:36:18.141Z,20.00
2022-08-22T05:37:18.372Z,15.50
2022-08-22T05:38:18.608Z,15.00
2022-08-22T05:39:18.885Z,17.00
2022-08-22T05:40:19.247Z,15.00
2022-08-22T05:41:19.359Z,15.50
2022-08-22T05:42:19.614Z,15.10
2022-08-22T05:43:19.878Z,17.00
2022-08-22T05:44:20.158Z,13.70
2022-08-22T05:45:20.389Z,13.00
2022-08-22T05:46:20.760Z,14.90
2022-08-22T05:47:22.022Z,18.70
2022-08-22T05:48:21.262Z,17.40
2022-08-22T05:49:21.535Z,18.10
2022-08-22T05:50:21.724Z,20.60
2022-08-22T05:51:22.069Z,16.80
2022-08-22T05:52:22.674Z,21.50
2022-08-22T05:53:22.728Z,16.10
2022-08-22T05:54:33.566Z,13.80
2022-08-22T05:55:24.236Z,14.40
2022-08-22T05:56:23.483Z,16.10
2022-08-22T05:57:23.705Z,21.70
2022-08-22T05:58:24.071Z,20.10
2022-08-22T05:59:24.386Z,16.40
2022-08-22T06:00:24.701Z,22.90
2022-08-22T06:01:25.020Z,18.50
2022-08-22T06:02:25.185Z,13.90
2022-08-22T06:03:25.528Z,12.90
2022-08-22T06:04:25.780Z,16.00
2022-08-22T06:05:26.029Z,17.30
2022-08-22T06:06:26.324Z,17.80
2022-08-22T06:07:33.632Z,15.20
2022-08-22T06:08:26.875Z,19.90
2022-08-22T06:09:27.133Z,17.40
2022-08-22T06:10:28.382Z,15.70
2022-08-22T06:11:33.755Z,25.60
2022-08-22T06:12:28.905Z,23.30
2022-08-22T06:13:28.257Z,17.40
2022-08-22T06:14:28.431Z,17.60
2022-08-22T06:15:29.025Z,19.20
2022-08-22T06:16:29.032Z,14.60
2022-08-22T06:17:29.286Z,21.30
2022-08-22T06:18:29.560Z,17.10
2022-08-22T06:19:29.801Z,20.40
2022-08-22T06:20:30.092Z,17.50
2022-08-22T06:21:34.965Z,16.10
2022-08-22T06:22:31.594Z,24.20
2022-08-22T06:23:30.863Z,17.70
2022-08-22T06:24:31.091Z,22.00
2022-08-22T06:25:31.316Z,22.50
2022-08-22T06:26:31.690Z,31.10
2022-08-22T06:27:31.953Z,25.60
2022-08-22T06:28:32.205Z,29.20
2022-08-22T06:29:32.432Z,25.20
2022-08-22T06:30:32.675Z,24.60
2022-08-22T06:31:32.961Z,21.40
2022-08-22T06:32:58.908Z,24.60
2022-08-22T06:33:34.466Z,22.70
2022-08-22T06:34:33.700Z,21.40
2022-08-22T06:35:34.052Z,24.80
2022-08-22T06:36:34.330Z,18.00
2022-08-22T06:37:34.631Z,24.30
2022-08-22T06:38:34.782Z,26.80
2022-08-22T06:39:35.086Z,23.10
2022-08-22T06:40:35.351Z,24.80
2022-08-22T06:41:35.609Z,60.20
2022-08-22T06:42:35.873Z,32.60
2022-08-22T06:43:36.138Z,33.50
2022-08-22T06:44:36.371Z,43.70
2022-08-22T06:45:36.652Z,27.60
2022-08-22T06:46:36.886Z,43.60
2022-08-22T06:47:37.156Z,49.00
2022-08-22T06:48:37.501Z,51.50
2022-08-22T06:49:37.752Z,32.10
2022-08-22T06:50:38.139Z,23.00
2022-08-22T06:51:38.376Z,28.50
2022-08-22T06:52:38.602Z,31.40
2022-08-22T06:53:39.574Z,31.60
2022-08-22T06:54:40.100Z,28.00
2022-08-22T06:55:39.419Z,22.40
2022-08-22T06:56:39.625Z,28.70
2022-08-22T06:57:39.895Z,26.50
2022-08-22T06:58:40.177Z,27.50
2022-08-22T06:59:40.413Z,24.40
2022-08-22T07:00:40.699Z,23.40
2022-08-22T07:01:40.978Z,25.00
2022-08-22T07:02:41.226Z,29.50
2022-08-22T07:03:41.490Z,24.40
2022-08-22T07:04:41.743Z,19.50
2022-08-22T07:05:42.004Z,18.30
2022-08-22T07:06:42.294Z,23.60
2022-08-22T07:07:42.537Z,24.50
2022-08-22T07:08:42.775Z,24.80
2022-08-22T07:09:42.999Z,22.30
2022-08-22T07:10:43.374Z,16.30
2022-08-22T07:11:43.665Z,16.20
2022-08-22T07:12:43.910Z,18.90
2022-08-22T07:13:44.148Z,21.80
2022-08-22T07:14:44.429Z,16.80
2022-08-22T07:15:44.661Z,16.00
2022-08-22T07:16:44.956Z,19.70
2022-08-22T07:17:45.191Z,14.10
2022-08-22T07:18:45.428Z,17.60
2022-08-22T07:19:45.734Z,17.00
2022-08-22T07:20:46.732Z,13.90
2022-08-22T07:21:46.209Z,15.70
2022-08-22T07:22:46.481Z,17.70
2022-08-22T07:23:46.786Z,15.40
2022-08-22T07:24:47.130Z,13.70
2022-08-22T07:25:47.348Z,24.90
2022-08-22T07:26:47.590Z,31.10
2022-08-22T07:27:48.996Z,15.40
2022-08-22T07:28:51.373Z,15.40
2022-08-22T07:29:49.530Z,16.40
2022-08-22T07:30:48.826Z,13.20
2022-08-22T07:31:49.089Z,14.10
2022-08-22T07:32:49.366Z,17.90
2022-08-22T07:33:49.641Z,15.50
2022-08-22T07:34:49.880Z,16.20
2022-08-22T07:35:53.512Z,15.00
2022-08-22T07:36:50.398Z,15.10
2022-08-22T07:37:50.632Z,14.20
2022-08-22T07:38:50.909Z,14.10
2022-08-22T07:39:51.189Z,17.00
2022-08-22T07:40:51.428Z,16.70
2022-08-22T07:41:51.678Z,14.30
2022-08-22T07:42:51.943Z,15.30
2022-08-22T07:43:52.170Z,13.20
2022-08-22T07:44:52.420Z,13.20
2022-08-22T07:45:52.685Z,15.50
2022-08-22T07:46:52.943Z,14.10
2022-08-22T07:47:53.239Z,14.10
2022-08-22T07:49:08.719Z,17.10
2022-08-22T07:49:54.737Z,16.40
2022-08-22T07:50:53.984Z,17.80
2022-08-22T07:51:54.237Z,16.00
2022-08-22T07:52:54.498Z,14.90
2022-08-22T07:53:58.004Z,16.20
2022-08-22T07:54:56.034Z,14.70
2022-08-22T07:55:55.283Z,17.40
2022-08-22T07:56:55.566Z,13.90
2022-08-22T07:57:55.844Z,14.70
2022-08-22T07:58:56.221Z,14.90
2022-08-22T07:59:56.410Z,15.60
2022-08-22T08:00:56.663Z,14.90
2022-08-22T08:01:56.937Z,15.30
2022-08-22T08:02:57.177Z,16.80
2022-08-22T08:03:57.429Z,15.60
2022-08-22T08:04:57.685Z,14.20
2022-08-22T08:05:58.013Z,20.00
2022-08-22T08:06:58.224Z,16.30
2022-08-22T08:07:58.627Z,16.60
2022-08-22T08:08:58.792Z,18.10
2022-08-22T08:09:59.041Z,16.10
2022-08-22T08:10:59.275Z,17.10
2022-08-22T08:11:59.529Z,16.50
2022-08-22T08:13:02.559Z,17.40
2022-08-22T08:14:00.109Z,17.70
2022-08-22T08:15:00.429Z,15.20
2022-08-22T08:16:00.637Z,15.50
2022-08-22T08:17:00.873Z,17.50
2022-08-22T08:18:01.299Z,16.30
2022-08-22T08:19:01.418Z,22.70
2022-08-22T08:20:01.680Z,19.80
2022-08-22T08:21:01.933Z,18.60
2022-08-22T08:22:02.241Z,15.20
2022-08-22T08:23:02.467Z,20.70
2022-08-22T08:24:02.693Z,16.10
2022-08-22T08:25:03.060Z,21.80
2022-08-22T08:26:03.290Z,15.40
2022-08-22T08:27:03.541Z,17.60
2022-08-22T08:28:03.814Z,21.60
2022-08-22T08:29:04.088Z,19.30
2022-08-22T08:30:04.372Z,17.80
2022-08-22T08:31:04.656Z,19.50
2022-08-22T08:32:04.905Z,21.00
2022-08-22T08:33:25.315Z,24.50
2022-08-22T08:34:06.426Z,14.80
2022-08-22T08:35:05.751Z,17.60
2022-08-22T08:36:06.051Z,18.20
2022-08-22T08:37:06.297Z,18.00
2022-08-22T08:38:06.531Z,26.00
2022-08-22T08:39:06.886Z,17.10
2022-08-22T08:40:07.191Z,18.30
2022-08-22T08:41:07.405Z,15.30
2022-08-22T08:42:07.650Z,17.20
2022-08-22T08:43:09.037Z,15.00
2022-08-22T08:44:08.211Z,14.20
2022-08-22T08:45:08.496Z,15.60
2022-08-22T08:46:08.734Z,14.20
2022-08-22T08:47:09.013Z,15.50
2022-08-22T08:48:09.281Z,30.00
2022-08-22T08:49:09.512Z,28.50
2022-08-22T08:50:09.745Z,24.20
2022-08-22T08:51:10.162Z,72.30
2022-08-22T08:52:10.439Z,38.40
2022-08-22T08:53:10.682Z,49.90
2022-08-22T08:54:10.987Z,53.10
2022-08-22T08:55:19.963Z,53.90
2022-08-22T08:56:14.618Z,21.80
2022-08-22T08:57:12.805Z,24.40
2022-08-22T08:58:12.073Z,15.00
2022-08-22T08:59:12.349Z,25.00
2022-08-22T09:00:12.694Z,21.90
2022-08-22T09:01:12.914Z,17.90
2022-08-22T09:02:13.778Z,16.40
2022-08-22T09:03:15.607Z,19.30
2022-08-22T09:04:15.079Z,15.80
2022-08-22T09:05:14.058Z,16.10
2022-08-22T09:06:14.341Z,15.30
2022-08-22T09:07:14.603Z,14.40
2022-08-22T09:08:14.861Z,15.20
2022-08-22T09:09:15.160Z,16.70
2022-08-22T09:10:15.414Z,17.80
2022-08-22T09:11:15.700Z,21.60
2022-08-22T09:12:15.941Z,22.20
2022-08-22T09:13:16.230Z,16.50
2022-08-22T09:14:16.504Z,22.10
2022-08-22T09:15:16.813Z,20.60
2022-08-22T09:16:17.101Z,16.10
2022-08-22T09:17:17.476Z,21.60
2022-08-22T09:18:18.280Z,21.30
2022-08-22T09:19:18.019Z,18.60
2022-08-22T09:20:19.438Z,21.40
2022-08-22T09:22:19.893Z,19.50
2022-08-22T09:23:19.144Z,19.40
2022-08-22T09:24:19.486Z,16.40
2022-08-22T09:25:19.770Z,19.60
2022-08-22T09:26:20.022Z,18.90
2022-08-22T09:27:20.285Z,18.50
2022-08-22T09:28:20.482Z,14.40
2022-08-22T09:29:20.743Z,21.30
2022-08-22T09:30:28.650Z,14.70
2022-08-22T09:31:47.502Z,15.40
2022-08-22T09:32:22.489Z,14.70
2022-08-22T09:33:21.823Z,11.80
2022-08-22T09:35:23.272Z,14.10
2022-08-22T09:36:22.534Z,13.50
2022-08-22T09:37:22.801Z,12.00
2022-08-22T09:38:23.067Z,13.70
2022-08-22T09:39:23.390Z,13.50
2022-08-22T09:41:23.991Z,20.70
2022-08-22T09:42:24.674Z,20.40
2022-08-22T09:43:24.500Z,18.50
2022-08-22T09:44:24.770Z,16.20
2022-08-22T09:45:25.111Z,13.40
2022-08-22T09:46:31.496Z,14.90
2022-08-22T09:47:26.611Z,16.30
2022-08-22T09:48:26.630Z,16.20
2022-08-22T09:49:26.151Z,14.90
2022-08-22T09:50:29.567Z,11.20
2022-08-22T09:51:32.269Z,13.40
2022-08-22T09:52:33.897Z,13.00
2022-08-22T09:53:28.658Z,12.80
2022-08-22T09:54:31.552Z,11.80
2022-08-22T09:55:35.276Z,12.30
2022-08-22T09:56:29.133Z,11.50
2022-08-22T09:57:29.153Z,11.30
2022-08-22T09:58:28.607Z,12.90
2022-08-22T09:59:29.034Z,12.10
2022-08-22T10:00:30.207Z,9.00
2022-08-22T10:01:33.025Z,14.10
2022-08-22T10:02:29.748Z,11.00
2022-08-22T10:03:30.478Z,11.20
2022-08-22T10:04:30.331Z,14.10
2022-08-22T10:05:40.748Z,12.80
2022-08-22T10:06:31.988Z,11.80
2022-08-22T10:07:31.229Z,14.50
2022-08-22T10:08:31.548Z,13.60
2022-08-22T10:09:32.122Z,12.50
2022-08-22T10:10:32.137Z,12.80
2022-08-22T10:11:32.656Z,11.70
2022-08-22T10:12:36.500Z,9.80
2022-08-22T10:13:32.974Z,11.10
2022-08-22T10:14:33.190Z,12.10
2022-08-22T10:15:33.415Z,16.70
2022-08-22T10:16:33.675Z,12.10
2022-08-22T10:17:34.117Z,12.10
2022-08-22T10:18:35.294Z,13.20
2022-08-22T10:19:34.551Z,16.20
2022-08-22T10:20:34.853Z,10.50
2022-08-22T10:21:35.124Z,10.70
2022-08-22T10:22:35.434Z,9.10
2022-08-22T10:23:35.709Z,10.90
2022-08-22T10:24:43.569Z,10.40
2022-08-22T10:25:37.185Z,12.40
2022-08-22T10:26:38.726Z,11.30
2022-08-22T10:27:36.788Z,10.50
2022-08-22T10:28:37.035Z,9.40
2022-08-22T10:29:37.536Z,9.60
2022-08-22T10:30:37.904Z,8.50
2022-08-22T10:31:41.164Z,8.60
2022-08-22T10:32:39.182Z,9.50
2022-08-22T10:33:38.463Z,10.30
2022-08-22T10:34:38.804Z,10.30
2022-08-22T10:35:39.024Z,11.80
2022-08-22T10:36:39.312Z,10.90
2022-08-22T10:37:39.706Z,9.80
2022-08-22T10:38:46.136Z,8.30
2022-08-22T10:39:41.227Z,10.60
2022-08-22T10:40:40.448Z,8.70
2022-08-22T10:41:40.890Z,9.10
2022-08-22T10:42:41.010Z,11.30
2022-08-22T10:43:41.347Z,11.50
2022-08-22T10:44:41.619Z,10.60
2022-08-22T10:45:41.889Z,12.60
2022-08-22T10:46:42.406Z,12.50
2022-08-22T10:47:42.528Z,8.60
2022-08-22T10:48:42.743Z,9.30
2022-08-22T10:49:42.971Z,9.80
2022-08-22T10:50:43.312Z,8.70
2022-08-22T10:51:43.572Z,11.70
2022-08-22T10:52:43.851Z,9.60
2022-08-22T10:53:44.092Z,9.10
2022-08-22T10:54:44.353Z,10.70
2022-08-22T10:55:44.611Z,12.50
2022-08-22T10:56:44.938Z,11.70
2022-08-22T10:57:48.334Z,15.30
2022-08-22T10:58:46.485Z,12.00
2022-08-22T10:59:45.723Z,11.40
2022-08-22T11:00:49.790Z,14.90
2022-08-22T11:01:46.253Z,11.60
2022-08-22T11:02:46.507Z,11.50
2022-08-22T11:03:46.759Z,12.60
2022-08-22T11:04:46.990Z,9.80
2022-08-22T11:05:50.164Z,8.80
2022-08-22T11:06:47.479Z,10.70
2022-08-22T11:07:48.654Z,11.20
2022-08-22T11:08:48.024Z,12.20
2022-08-22T11:09:48.324Z,12.10
2022-08-22T11:10:48.667Z,12.90
2022-08-22T11:11:48.935Z,13.50
2022-08-22T11:12:49.125Z,12.30
2022-08-22T11:13:49.708Z,10.70
2022-08-22T11:14:49.705Z,10.20
2022-08-22T11:15:49.971Z,10.80
2022-08-22T11:16:55.236Z,12.00
2022-08-22T11:17:54.155Z,10.50
2022-08-22T11:18:58.008Z,11.00
2022-08-22T11:19:52.155Z,8.90
2022-08-22T11:20:51.763Z,9.90
2022-08-22T11:21:51.796Z,9.90
2022-08-22T11:22:52.060Z,14.70
2022-08-22T11:23:52.340Z,15.50
2022-08-22T11:24:56.630Z,13.70
2022-08-22T11:25:54.185Z,14.60
2022-08-22T11:26:53.139Z,13.80
2022-08-22T11:27:53.777Z,12.00
2022-08-22T11:28:53.763Z,11.80
2022-08-22T11:29:54.060Z,16.80
2022-08-22T11:30:54.367Z,13.00
2022-08-22T11:31:54.700Z,10.20
2022-08-22T11:32:57.900Z,12.50
2022-08-22T11:33:55.194Z,13.80
2022-08-22T11:34:55.481Z,10.50
2022-08-22T11:35:56.045Z,14.00
2022-08-22T11:36:55.994Z,11.40
2022-08-22T11:37:56.476Z,10.60
2022-08-22T11:38:56.621Z,11.20
2022-08-22T11:39:56.969Z,13.00
2022-08-22T11:40:57.214Z,8.80
2022-08-22T11:41:57.658Z,11.70
2022-08-22T11:42:57.930Z,9.90
2022-08-22T11:43:58.090Z,11.20
2022-08-22T11:44:58.305Z,11.50
2022-08-22T11:45:58.596Z,12.70
2022-08-22T11:46:59.036Z,11.50
2022-08-22T11:47:59.154Z,13.40
2022-08-22T11:48:59.654Z,9.80
2022-08-22T11:49:59.713Z,12.80
2022-08-22T11:50:59.928Z,12.40
2022-08-22T11:52:00.235Z,11.70
2022-08-22T11:53:01.456Z,11.60
2022-08-22T11:54:00.805Z,11.90
2022-08-22T11:55:01.068Z,11.30
2022-08-22T11:56:05.590Z,11.60
2022-08-22T11:57:01.656Z,10.20
2022-08-22T11:58:02.143Z,10.60
2022-08-22T11:59:02.465Z,10.30
2022-08-22T12:00:02.527Z,10.00
2022-08-22T12:01:02.786Z,10.80
2022-08-22T12:02:03.979Z,12.10
2022-08-22T12:03:03.367Z,10.30
2022-08-22T12:04:03.659Z,13.80
2022-08-22T12:05:03.851Z,10.20
2022-08-22T12:06:04.074Z,12.50
2022-08-22T12:07:04.586Z,13.00
2022-08-22T12:08:04.696Z,9.90
2022-08-22T12:09:05.013Z,10.90
2022-08-22T12:10:05.391Z,9.40
2022-08-22T12:11:05.531Z,9.60
2022-08-22T12:12:06.478Z,9.50
2022-08-22T12:13:06.352Z,13.20
2022-08-22T12:14:06.820Z,11.20
2022-08-22T12:15:08.788Z,12.90
2022-08-22T12:16:07.124Z,9.00
2022-08-22T12:17:07.487Z,9.10
2022-08-22T12:18:07.696Z,13.60
2022-08-22T12:19:07.965Z,11.70
2022-08-22T12:20:16.714Z,9.70
2022-08-22T12:21:09.536Z,9.80
2022-08-22T12:22:08.791Z,9.70
2022-08-22T12:23:09.055Z,10.90
2022-08-22T12:24:11.350Z,12.30
2022-08-22T12:25:10.604Z,10.10
2022-08-22T12:26:10.711Z,11.80
2022-08-22T12:27:10.200Z,10.00
2022-08-22T12:28:10.476Z,9.80
2022-08-22T12:29:15.413Z,9.50
2022-08-22T12:30:13.885Z,10.70
2022-08-22T12:31:11.275Z,11.00
2022-08-22T12:32:11.520Z,11.70
2022-08-22T12:33:13.170Z,11.50
2022-08-22T12:34:12.099Z,11.20
2022-08-22T12:35:13.954Z,10.70
2022-08-22T12:36:18.144Z,13.00
2022-08-22T12:37:14.028Z,14.80
2022-08-22T12:38:27.943Z,14.10
2022-08-22T12:39:14.513Z,12.80
2022-08-22T12:40:13.854Z,10.20
2022-08-22T12:41:14.168Z,9.40
2022-08-22T12:42:15.388Z,10.90
2022-08-22T12:43:14.628Z,10.10
2022-08-22T12:44:17.290Z,14.80
2022-08-22T12:45:15.244Z,9.90
2022-08-22T12:46:15.520Z,11.10
2022-08-22T12:47:17.231Z,10.20
2022-08-22T12:48:16.067Z,9.70
2022-08-22T12:49:16.317Z,9.40
2022-08-22T12:50:17.049Z,10.60
2022-08-22T12:51:17.597Z,11.40
2022-08-22T12:52:17.181Z,9.00
2022-08-22T12:53:20.207Z,8.20
2022-08-22T12:54:17.680Z,8.50
2022-08-22T12:55:18.237Z,7.40
2022-08-22T12:56:18.313Z,7.90
2022-08-22T12:57:23.856Z,8.30
2022-08-22T12:58:19.805Z,9.40